sensor_id;sensor_type;location;lat;lon;timestamp;pressure;altitude;pressure_sealevel;temperature
70969;BMP280;58630;43.022;25.100;2023-04-24T00:02:13;;;;19.30
70969;BMP280;58630;43.022;25.100;2023-04-24T00:04:39;;;;19.30
70969;BMP280;58630;43.022;25.100;2023-04-24T00:07:06;;;;19.20
70969;BMP280;58630;43.022;25.100;2023-04-24T00:09:32;;;;19.20
70969;BMP280;58630;43.022;25.100;2023-04-24T00:11:57;;;;19.10
70969;BMP280;58630;43.022;25.100;2023-04-24T00:14:23;;;;19.10
70969;BMP280;58630;43.022;25.100;2023-04-24T00:16:48;;;;19.10
70969;BMP280;58630;43.022;25.100;2023-04-24T00:19:14;;;;19.10
70969;BMP280;58630;43.022;25.100;2023-04-24T00:21:40;;;;19.10
70969;BMP280;58630;43.022;25.100;2023-04-24T00:24:06;;;;19.00
70969;BMP280;58630;43.022;25.100;2023-04-24T00:26:34;;;;19.00
70969;BMP280;58630;43.022;25.100;2023-04-24T00:28:59;;;;19.00
70969;BMP280;58630;43.022;25.100;2023-04-24T00:31:25;;;;18.90
70969;BMP280;58630;43.022;25.100;2023-04-24T00:33:51;;;;18.90
70969;BMP280;58630;43.022;25.100;2023-04-24T00:36:16;;;;18.90
70969;BMP280;58630;43.022;25.100;2023-04-24T00:38:42;;;;18.80
70969;BMP280;58630;43.022;25.100;2023-04-24T00:41:07;;;;18.80
70969;BMP280;58630;43.022;25.100;2023-04-24T00:43:33;;;;18.80
70969;BMP280;58630;43.022;25.100;2023-04-24T00:45:58;;;;18.70
70969;BMP280;58630;43.022;25.100;2023-04-24T00:48:26;;;;18.70
70969;BMP280;58630;43.022;25.100;2023-04-24T00:50:52;;;;18.70
70969;BMP280;58630;43.022;25.100;2023-04-24T00:53:18;;;;18.70
70969;BMP280;58630;43.022;25.100;2023-04-24T00:55:44;;;;18.70
70969;BMP280;58630;43.022;25.100;2023-04-24T00:58:09;;;;18.60
70969;BMP280;58630;43.022;25.100;2023-04-24T01:00:35;;;;18.60
70969;BMP280;58630;43.022;25.100;2023-04-24T01:03:01;;;;18.60
70969;BMP280;58630;43.022;25.100;2023-04-24T01:05:29;;;;18.50
70969;BMP280;58630;43.022;25.100;2023-04-24T01:07:55;;;;18.50
70969;BMP280;58630;43.022;25.100;2023-04-24T01:10:21;;;;18.50
70969;BMP280;58630;43.022;25.100;2023-04-24T01:12:47;;;;18.50
70969;BMP280;58630;43.022;25.100;2023-04-24T01:15:13;;;;18.40
70969;BMP280;58630;43.022;25.100;2023-04-24T01:17:38;;;;18.40
70969;BMP280;58630;43.022;25.100;2023-04-24T01:20:04;;;;18.30
70969;BMP280;58630;43.022;25.100;2023-04-24T01:22:32;;;;18.30
70969;BMP280;58630;43.022;25.100;2023-04-24T01:24:57;;;;18.30
70969;BMP280;58630;43.022;25.100;2023-04-24T01:27:23;;;;18.30
70969;BMP280;58630;43.022;25.100;2023-04-24T01:29:49;;;;18.30
70969;BMP280;58630;43.022;25.100;2023-04-24T01:32:17;;;;18.20
70969;BMP280;58630;43.022;25.100;2023-04-24T01:34:43;;;;18.20
70969;BMP280;58630;43.022;25.100;2023-04-24T01:37:09;;;;18.20
70969;BMP280;58630;43.022;25.100;2023-04-24T01:39:35;;;;18.20
70969;BMP280;58630;43.022;25.100;2023-04-24T01:42:01;;;;18.10
70969;BMP280;58630;43.022;25.100;2023-04-24T01:44:27;;;;18.10
70969;BMP280;58630;43.022;25.100;2023-04-24T01:46:54;;;;18.10
70969;BMP280;58630;43.022;25.100;2023-04-24T01:49:20;;;;18.10
70969;BMP280;58630;43.022;25.100;2023-04-24T01:51:45;;;;18.00
70969;BMP280;58630;43.022;25.100;2023-04-24T01:54:12;;;;18.00
70969;BMP280;58630;43.022;25.100;2023-04-24T01:56:39;;;;18.00
70969;BMP280;58630;43.022;25.100;2023-04-24T01:59:05;;;;18.00
70969;BMP280;58630;43.022;25.100;2023-04-24T02:01:34;;;;18.00
70969;BMP280;58630;43.022;25.100;2023-04-24T02:04:03;;;;18.00
70969;BMP280;58630;43.022;25.100;2023-04-24T02:06:29;;;;17.90
70969;BMP280;58630;43.022;25.100;2023-04-24T02:08:57;;;;17.90
70969;BMP280;58630;43.022;25.100;2023-04-24T02:11:22;;;;17.90
70969;BMP280;58630;43.022;25.100;2023-04-24T02:13:48;;;;17.90
70969;BMP280;58630;43.022;25.100;2023-04-24T02:16:14;;;;17.90
70969;BMP280;58630;43.022;25.100;2023-04-24T02:18:39;;;;17.90
70969;BMP280;58630;43.022;25.100;2023-04-24T02:21:05;;;;17.90
70969;BMP280;58630;43.022;25.100;2023-04-24T02:23:30;;;;17.90
70969;BMP280;58630;43.022;25.100;2023-04-24T02:25:56;;;;17.90
70969;BMP280;58630;43.022;25.100;2023-04-24T02:28:22;;;;17.80
70969;BMP280;58630;43.022;25.100;2023-04-24T02:30:47;;;;17.80
70969;BMP280;58630;43.022;25.100;2023-04-24T02:33:13;;;;17.80
70969;BMP280;58630;43.022;25.100;2023-04-24T02:35:38;;;;17.80
70969;BMP280;58630;43.022;25.100;2023-04-24T02:38:04;;;;17.80
70969;BMP280;58630;43.022;25.100;2023-04-24T02:40:29;;;;17.70
70969;BMP280;58630;43.022;25.100;2023-04-24T02:42:55;;;;17.70
70969;BMP280;58630;43.022;25.100;2023-04-24T02:45:21;;;;17.70
70969;BMP280;58630;43.022;25.100;2023-04-24T02:47:46;;;;17.70
70969;BMP280;58630;43.022;25.100;2023-04-24T02:50:12;;;;17.70
70969;BMP280;58630;43.022;25.100;2023-04-24T02:52:37;;;;17.70
70969;BMP280;58630;43.022;25.100;2023-04-24T02:55:03;;;;17.70
70969;BMP280;58630;43.022;25.100;2023-04-24T02:57:29;;;;17.60
70969;BMP280;58630;43.022;25.100;2023-04-24T02:59:54;;;;17.60
70969;BMP280;58630;43.022;25.100;2023-04-24T03:02:20;;;;17.60
70969;BMP280;58630;43.022;25.100;2023-04-24T03:04:46;;;;17.60
70969;BMP280;58630;43.022;25.100;2023-04-24T03:07:13;;;;17.60
70969;BMP280;58630;43.022;25.100;2023-04-24T03:09:40;;;;17.60
70969;BMP280;58630;43.022;25.100;2023-04-24T03:12:05;;;;17.50
70969;BMP280;58630;43.022;25.100;2023-04-24T03:14:31;;;;17.50
70969;BMP280;58630;43.022;25.100;2023-04-24T03:16:56;;;;17.50
70969;BMP280;58630;43.022;25.100;2023-04-24T03:19:22;;;;17.50
70969;BMP280;58630;43.022;25.100;2023-04-24T03:21:47;;;;17.50
70969;BMP280;58630;43.022;25.100;2023-04-24T03:24:13;;;;17.50
70969;BMP280;58630;43.022;25.100;2023-04-24T03:26:39;;;;17.40
70969;BMP280;58630;43.022;25.100;2023-04-24T03:29:04;;;;17.40
70969;BMP280;58630;43.022;25.100;2023-04-24T03:31:30;;;;17.40
70969;BMP280;58630;43.022;25.100;2023-04-24T03:33:55;;;;17.40
70969;BMP280;58630;43.022;25.100;2023-04-24T03:36:21;;;;17.40
70969;BMP280;58630;43.022;25.100;2023-04-24T03:38:46;;;;17.40
70969;BMP280;58630;43.022;25.100;2023-04-24T03:41:12;;;;17.40
70969;BMP280;58630;43.022;25.100;2023-04-24T03:43:37;;;;17.30
70969;BMP280;58630;43.022;25.100;2023-04-24T03:46:03;;;;17.30
70969;BMP280;58630;43.022;25.100;2023-04-24T03:48:29;;;;17.30
70969;BMP280;58630;43.022;25.100;2023-04-24T03:50:55;;;;17.30
70969;BMP280;58630;43.022;25.100;2023-04-24T03:53:20;;;;17.30
70969;BMP280;58630;43.022;25.100;2023-04-24T03:55:46;;;;17.30
70969;BMP280;58630;43.022;25.100;2023-04-24T03:58:12;;;;17.30
70969;BMP280;58630;43.022;25.100;2023-04-24T04:00:39;;;;17.30
70969;BMP280;58630;43.022;25.100;2023-04-24T04:03:05;;;;17.30
70969;BMP280;58630;43.022;25.100;2023-04-24T04:05:31;;;;17.20
70969;BMP280;58630;43.022;25.100;2023-04-24T04:07:56;;;;17.20
70969;BMP280;58630;43.022;25.100;2023-04-24T04:10:22;;;;17.20
70969;BMP280;58630;43.022;25.100;2023-04-24T04:12:48;;;;17.20
70969;BMP280;58630;43.022;25.100;2023-04-24T04:15:13;;;;17.20
70969;BMP280;58630;43.022;25.100;2023-04-24T04:17:39;;;;17.20
70969;BMP280;58630;43.022;25.100;2023-04-24T04:20:05;;;;17.20
70969;BMP280;58630;43.022;25.100;2023-04-24T04:22:35;;;;17.10
70969;BMP280;58630;43.022;25.100;2023-04-24T04:25:01;;;;17.10
70969;BMP280;58630;43.022;25.100;2023-04-24T04:27:26;;;;17.10
70969;BMP280;58630;43.022;25.100;2023-04-24T04:29:53;;;;17.10
70969;BMP280;58630;43.022;25.100;2023-04-24T04:32:19;;;;17.10
70969;BMP280;58630;43.022;25.100;2023-04-24T04:34:44;;;;17.10
70969;BMP280;58630;43.022;25.100;2023-04-24T04:37:10;;;;17.10
70969;BMP280;58630;43.022;25.100;2023-04-24T04:39:37;;;;17.10
70969;BMP280;58630;43.022;25.100;2023-04-24T04:42:03;;;;17.10
70969;BMP280;58630;43.022;25.100;2023-04-24T04:44:29;;;;17.10
70969;BMP280;58630;43.022;25.100;2023-04-24T04:46:56;;;;17.10
70969;BMP280;58630;43.022;25.100;2023-04-24T04:49:22;;;;17.10
70969;BMP280;58630;43.022;25.100;2023-04-24T04:51:49;;;;17.10
70969;BMP280;58630;43.022;25.100;2023-04-24T04:54:16;;;;17.10
70969;BMP280;58630;43.022;25.100;2023-04-24T04:56:41;;;;17.10
70969;BMP280;58630;43.022;25.100;2023-04-24T04:59:07;;;;17.10
70969;BMP280;58630;43.022;25.100;2023-04-24T05:01:32;;;;17.10
70969;BMP280;58630;43.022;25.100;2023-04-24T05:03:58;;;;17.10
70969;BMP280;58630;43.022;25.100;2023-04-24T05:06:24;;;;17.20
70969;BMP280;58630;43.022;25.100;2023-04-24T05:08:50;;;;17.20
70969;BMP280;58630;43.022;25.100;2023-04-24T05:11:16;;;;17.20
70969;BMP280;58630;43.022;25.100;2023-04-24T05:13:42;;;;17.20
70969;BMP280;58630;43.022;25.100;2023-04-24T05:16:08;;;;17.20
70969;BMP280;58630;43.022;25.100;2023-04-24T05:18:34;;;;17.20
70969;BMP280;58630;43.022;25.100;2023-04-24T05:21:00;;;;17.20
70969;BMP280;58630;43.022;25.100;2023-04-24T05:23:26;;;;17.20
70969;BMP280;58630;43.022;25.100;2023-04-24T05:25:52;;;;17.20
70969;BMP280;58630;43.022;25.100;2023-04-24T05:28:18;;;;17.20
70969;BMP280;58630;43.022;25.100;2023-04-24T05:30:43;;;;17.20
70969;BMP280;58630;43.022;25.100;2023-04-24T05:33:09;;;;17.20
70969;BMP280;58630;43.022;25.100;2023-04-24T05:35:35;;;;17.20
70969;BMP280;58630;43.022;25.100;2023-04-24T05:38:00;;;;17.20
70969;BMP280;58630;43.022;25.100;2023-04-24T05:40:26;;;;17.20
70969;BMP280;58630;43.022;25.100;2023-04-24T05:42:52;;;;17.20
70969;BMP280;58630;43.022;25.100;2023-04-24T05:45:17;;;;17.30
70969;BMP280;58630;43.022;25.100;2023-04-24T05:47:43;;;;17.20
70969;BMP280;58630;43.022;25.100;2023-04-24T05:50:09;;;;17.20
70969;BMP280;58630;43.022;25.100;2023-04-24T05:52:35;;;;17.20
70969;BMP280;58630;43.022;25.100;2023-04-24T05:55:00;;;;17.20
70969;BMP280;58630;43.022;25.100;2023-04-24T05:57:26;;;;17.20
70969;BMP280;58630;43.022;25.100;2023-04-24T05:59:51;;;;17.20
70969;BMP280;58630;43.022;25.100;2023-04-24T06:02:17;;;;17.20
70969;BMP280;58630;43.022;25.100;2023-04-24T06:04:42;;;;17.20
70969;BMP280;58630;43.022;25.100;2023-04-24T06:07:10;;;;17.20
70969;BMP280;58630;43.022;25.100;2023-04-24T06:09:36;;;;17.30
70969;BMP280;58630;43.022;25.100;2023-04-24T06:12:02;;;;17.20
70969;BMP280;58630;43.022;25.100;2023-04-24T06:14:27;;;;17.30
70969;BMP280;58630;43.022;25.100;2023-04-24T06:16:53;;;;17.30
70969;BMP280;58630;43.022;25.100;2023-04-24T06:19:19;;;;17.30
70969;BMP280;58630;43.022;25.100;2023-04-24T06:21:44;;;;17.30
70969;BMP280;58630;43.022;25.100;2023-04-24T06:24:10;;;;17.30
70969;BMP280;58630;43.022;25.100;2023-04-24T06:26:36;;;;17.30
70969;BMP280;58630;43.022;25.100;2023-04-24T06:29:01;;;;17.20
70969;BMP280;58630;43.022;25.100;2023-04-24T06:31:27;;;;17.30
70969;BMP280;58630;43.022;25.100;2023-04-24T06:33:52;;;;17.20
70969;BMP280;58630;43.022;25.100;2023-04-24T06:36:18;;;;17.20
70969;BMP280;58630;43.022;25.100;2023-04-24T06:38:43;;;;17.20
70969;BMP280;58630;43.022;25.100;2023-04-24T06:41:09;;;;17.20
70969;BMP280;58630;43.022;25.100;2023-04-24T06:43:35;;;;17.20
70969;BMP280;58630;43.022;25.100;2023-04-24T06:46:01;;;;17.20
70969;BMP280;58630;43.022;25.100;2023-04-24T06:48:28;;;;17.20
70969;BMP280;58630;43.022;25.100;2023-04-24T06:50:54;;;;17.20
70969;BMP280;58630;43.022;25.100;2023-04-24T06:53:19;;;;17.20
70969;BMP280;58630;43.022;25.100;2023-04-24T06:55:45;;;;17.20
70969;BMP280;58630;43.022;25.100;2023-04-24T06:58:11;;;;17.20
70969;BMP280;58630;43.022;25.100;2023-04-24T07:00:37;;;;17.30
70969;BMP280;58630;43.022;25.100;2023-04-24T07:03:03;;;;17.20
70969;BMP280;58630;43.022;25.100;2023-04-24T07:05:30;;;;17.30
70969;BMP280;58630;43.022;25.100;2023-04-24T07:07:56;;;;17.30
70969;BMP280;58630;43.022;25.100;2023-04-24T07:10:23;;;;17.30
70969;BMP280;58630;43.022;25.100;2023-04-24T07:12:49;;;;17.30
70969;BMP280;58630;43.022;25.100;2023-04-24T07:15:15;;;;17.30
70969;BMP280;58630;43.022;25.100;2023-04-24T07:17:41;;;;17.30
70969;BMP280;58630;43.022;25.100;2023-04-24T07:20:10;;;;17.30
70969;BMP280;58630;43.022;25.100;2023-04-24T07:22:36;;;;17.30
70969;BMP280;58630;43.022;25.100;2023-04-24T07:25:02;;;;17.40
70969;BMP280;58630;43.022;25.100;2023-04-24T07:27:28;;;;17.40
70969;BMP280;58630;43.022;25.100;2023-04-24T07:29:53;;;;17.40
70969;BMP280;58630;43.022;25.100;2023-04-24T07:32:19;;;;17.40
70969;BMP280;58630;43.022;25.100;2023-04-24T07:34:44;;;;17.40
70969;BMP280;58630;43.022;25.100;2023-04-24T07:37:10;;;;17.40
70969;BMP280;58630;43.022;25.100;2023-04-24T07:39:36;;;;17.40
70969;BMP280;58630;43.022;25.100;2023-04-24T07:42:01;;;;17.40
70969;BMP280;58630;43.022;25.100;2023-04-24T07:44:27;;;;17.40
70969;BMP280;58630;43.022;25.100;2023-04-24T07:46:53;;;;17.40
70969;BMP280;58630;43.022;25.100;2023-04-24T07:49:18;;;;17.50
70969;BMP280;58630;43.022;25.100;2023-04-24T07:51:44;;;;17.50
70969;BMP280;58630;43.022;25.100;2023-04-24T07:54:10;;;;17.50
70969;BMP280;58630;43.022;25.100;2023-04-24T07:56:36;;;;17.40
70969;BMP280;58630;43.022;25.100;2023-04-24T07:59:04;;;;17.40
70969;BMP280;58630;43.022;25.100;2023-04-24T08:01:30;;;;17.40
70969;BMP280;58630;43.022;25.100;2023-04-24T08:03:55;;;;17.40
70969;BMP280;58630;43.022;25.100;2023-04-24T08:06:21;;;;17.50
70969;BMP280;58630;43.022;25.100;2023-04-24T08:08:46;;;;17.50
70969;BMP280;58630;43.022;25.100;2023-04-24T08:11:12;;;;17.50
70969;BMP280;58630;43.022;25.100;2023-04-24T08:13:37;;;;17.50
70969;BMP280;58630;43.022;25.100;2023-04-24T08:16:03;;;;17.50
70969;BMP280;58630;43.022;25.100;2023-04-24T08:18:29;;;;17.50
70969;BMP280;58630;43.022;25.100;2023-04-24T08:20:54;;;;17.50
70969;BMP280;58630;43.022;25.100;2023-04-24T08:23:20;;;;17.50
70969;BMP280;58630;43.022;25.100;2023-04-24T08:25:45;;;;17.50
70969;BMP280;58630;43.022;25.100;2023-04-24T08:28:11;;;;17.60
70969;BMP280;58630;43.022;25.100;2023-04-24T08:30:36;;;;17.60
70969;BMP280;58630;43.022;25.100;2023-04-24T08:33:03;;;;17.60
70969;BMP280;58630;43.022;25.100;2023-04-24T08:35:29;;;;17.60
70969;BMP280;58630;43.022;25.100;2023-04-24T08:37:54;;;;17.60
70969;BMP280;58630;43.022;25.100;2023-04-24T08:40:22;;;;17.60
70969;BMP280;58630;43.022;25.100;2023-04-24T08:42:48;;;;17.70
70969;BMP280;58630;43.022;25.100;2023-04-24T08:45:14;;;;17.70
70969;BMP280;58630;43.022;25.100;2023-04-24T08:47:41;;;;17.70
70969;BMP280;58630;43.022;25.100;2023-04-24T08:50:07;;;;17.70
70969;BMP280;58630;43.022;25.100;2023-04-24T08:52:33;;;;17.70
70969;BMP280;58630;43.022;25.100;2023-04-24T08:54:59;;;;17.70
70969;BMP280;58630;43.022;25.100;2023-04-24T08:57:25;;;;17.80
70969;BMP280;58630;43.022;25.100;2023-04-24T08:59:51;;;;17.80
70969;BMP280;58630;43.022;25.100;2023-04-24T09:02:17;;;;17.80
70969;BMP280;58630;43.022;25.100;2023-04-24T09:04:43;;;;17.80
70969;BMP280;58630;43.022;25.100;2023-04-24T09:07:09;;;;17.90
70969;BMP280;58630;43.022;25.100;2023-04-24T09:09:35;;;;17.90
70969;BMP280;58630;43.022;25.100;2023-04-24T09:12:01;;;;17.90
70969;BMP280;58630;43.022;25.100;2023-04-24T09:14:28;;;;17.90
70969;BMP280;58630;43.022;25.100;2023-04-24T09:16:56;;;;18.00
70969;BMP280;58630;43.022;25.100;2023-04-24T09:19:22;;;;18.00
70969;BMP280;58630;43.022;25.100;2023-04-24T09:21:47;;;;18.00
70969;BMP280;58630;43.022;25.100;2023-04-24T09:24:17;;;;18.10
70969;BMP280;58630;43.022;25.100;2023-04-24T09:26:43;;;;18.10
70969;BMP280;58630;43.022;25.100;2023-04-24T09:29:13;;;;18.10
70969;BMP280;58630;43.022;25.100;2023-04-24T09:31:39;;;;18.20
70969;BMP280;58630;43.022;25.100;2023-04-24T09:34:04;;;;18.20
70969;BMP280;58630;43.022;25.100;2023-04-24T09:36:34;;;;18.30
70969;BMP280;58630;43.022;25.100;2023-04-24T09:39:02;;;;18.30
70969;BMP280;58630;43.022;25.100;2023-04-24T09:41:28;;;;18.30
70969;BMP280;58630;43.022;25.100;2023-04-24T09:43:57;;;;18.40
70969;BMP280;58630;43.022;25.100;2023-04-24T09:46:30;;;;18.40
70969;BMP280;58630;43.022;25.100;2023-04-24T09:49:03;;;;18.50
70969;BMP280;58630;43.022;25.100;2023-04-24T09:51:33;;;;18.50
70969;BMP280;58630;43.022;25.100;2023-04-24T09:53:59;;;;18.60
70969;BMP280;58630;43.022;25.100;2023-04-24T09:56:25;;;;18.70
70969;BMP280;58630;43.022;25.100;2023-04-24T09:58:51;;;;18.70
70969;BMP280;58630;43.022;25.100;2023-04-24T10:01:28;;;;18.70
70969;BMP280;58630;43.022;25.100;2023-04-24T10:03:54;;;;18.80
70969;BMP280;58630;43.022;25.100;2023-04-24T10:06:19;;;;18.90
70969;BMP280;58630;43.022;25.100;2023-04-24T10:08:45;;;;18.90
70969;BMP280;58630;43.022;25.100;2023-04-24T10:11:11;;;;18.90
70969;BMP280;58630;43.022;25.100;2023-04-24T10:13:39;;;;18.90
70969;BMP280;58630;43.022;25.100;2023-04-24T10:16:05;;;;18.90
70969;BMP280;58630;43.022;25.100;2023-04-24T10:18:31;;;;19.00
70969;BMP280;58630;43.022;25.100;2023-04-24T10:20:57;;;;19.00
70969;BMP280;58630;43.022;25.100;2023-04-24T10:23:25;;;;19.00
70969;BMP280;58630;43.022;25.100;2023-04-24T10:25:51;;;;19.00
70969;BMP280;58630;43.022;25.100;2023-04-24T10:28:17;;;;19.00
70969;BMP280;58630;43.022;25.100;2023-04-24T10:30:44;;;;19.10
70969;BMP280;58630;43.022;25.100;2023-04-24T10:33:10;;;;19.10
70969;BMP280;58630;43.022;25.100;2023-04-24T10:35:38;;;;19.20
70969;BMP280;58630;43.022;25.100;2023-04-24T10:40:36;;;;19.20
70969;BMP280;58630;43.022;25.100;2023-04-24T10:43:02;;;;19.30
70969;BMP280;58630;43.022;25.100;2023-04-24T10:45:28;;;;19.30
70969;BMP280;58630;43.022;25.100;2023-04-24T10:48:06;;;;19.40
70969;BMP280;58630;43.022;25.100;2023-04-24T10:50:43;;;;19.40
70969;BMP280;58630;43.022;25.100;2023-04-24T10:53:16;;;;19.40
70969;BMP280;58630;43.022;25.100;2023-04-24T10:55:43;;;;19.40
70969;BMP280;58630;43.022;25.100;2023-04-24T10:58:09;;;;19.40
70969;BMP280;58630;43.022;25.100;2023-04-24T11:00:36;;;;19.40
70969;BMP280;58630;43.022;25.100;2023-04-24T11:03:04;;;;19.50
70969;BMP280;58630;43.022;25.100;2023-04-24T11:05:48;;;;19.50
70969;BMP280;58630;43.022;25.100;2023-04-24T11:08:15;;;;19.50
70969;BMP280;58630;43.022;25.100;2023-04-24T11:10:45;;;;19.50
70969;BMP280;58630;43.022;25.100;2023-04-24T11:13:14;;;;19.60
70969;BMP280;58630;43.022;25.100;2023-04-24T11:15:41;;;;19.60
70969;BMP280;58630;43.022;25.100;2023-04-24T11:18:06;;;;19.70
70969;BMP280;58630;43.022;25.100;2023-04-24T11:20:32;;;;19.80
70969;BMP280;58630;43.022;25.100;2023-04-24T11:23:00;;;;19.80
70969;BMP280;58630;43.022;25.100;2023-04-24T11:25:30;;;;19.90
70969;BMP280;58630;43.022;25.100;2023-04-24T11:28:05;;;;19.90
70969;BMP280;58630;43.022;25.100;2023-04-24T11:30:31;;;;19.90
70969;BMP280;58630;43.022;25.100;2023-04-24T11:33:01;;;;20.00
70969;BMP280;58630;43.022;25.100;2023-04-24T11:35:27;;;;20.00
70969;BMP280;58630;43.022;25.100;2023-04-24T11:37:54;;;;20.00
70969;BMP280;58630;43.022;25.100;2023-04-24T11:40:20;;;;20.10
70969;BMP280;58630;43.022;25.100;2023-04-24T11:42:48;;;;20.10
70969;BMP280;58630;43.022;25.100;2023-04-24T11:47:39;;;;20.20
70969;BMP280;58630;43.022;25.100;2023-04-24T11:50:06;;;;20.30
70969;BMP280;58630;43.022;25.100;2023-04-24T11:52:32;;;;20.40
70969;BMP280;58630;43.022;25.100;2023-04-24T11:54:59;;;;20.60
70969;BMP280;58630;43.022;25.100;2023-04-24T11:57:25;;;;20.80
70969;BMP280;58630;43.022;25.100;2023-04-24T11:59:54;;;;21.00
70969;BMP280;58630;43.022;25.100;2023-04-24T12:02:23;;;;21.30
70969;BMP280;58630;43.022;25.100;2023-04-24T12:04:48;;;;21.50
70969;BMP280;58630;43.022;25.100;2023-04-24T12:07:14;;;;21.80
70969;BMP280;58630;43.022;25.100;2023-04-24T12:09:40;;;;22.20
70969;BMP280;58630;43.022;25.100;2023-04-24T12:12:06;;;;22.50
70969;BMP280;58630;43.022;25.100;2023-04-24T12:14:32;;;;22.80
70969;BMP280;58630;43.022;25.100;2023-04-24T12:16:57;;;;23.00
70969;BMP280;58630;43.022;25.100;2023-04-24T12:19:23;;;;23.20
70969;BMP280;58630;43.022;25.100;2023-04-24T12:22:02;;;;23.40
70969;BMP280;58630;43.022;25.100;2023-04-24T12:24:28;;;;23.60
70969;BMP280;58630;43.022;25.100;2023-04-24T12:26:53;;;;23.90
70969;BMP280;58630;43.022;25.100;2023-04-24T12:29:20;;;;23.90
70969;BMP280;58630;43.022;25.100;2023-04-24T12:31:46;;;;24.00
70969;BMP280;58630;43.022;25.100;2023-04-24T12:34:21;;;;23.30
70969;BMP280;58630;43.022;25.100;2023-04-24T12:36:47;;;;22.90
70969;BMP280;58630;43.022;25.100;2023-04-24T12:39:16;;;;22.90
70969;BMP280;58630;43.022;25.100;2023-04-24T12:41:55;;;;22.90
70969;BMP280;58630;43.022;25.100;2023-04-24T12:46:56;;;;23.10
70969;BMP280;58630;43.022;25.100;2023-04-24T12:49:22;;;;23.40
70969;BMP280;58630;43.022;25.100;2023-04-24T12:51:48;;;;23.60
70969;BMP280;58630;43.022;25.100;2023-04-24T12:54:13;;;;23.70
70969;BMP280;58630;43.022;25.100;2023-04-24T12:56:39;;;;23.90
70969;BMP280;58630;43.022;25.100;2023-04-24T12:59:04;;;;24.10
70969;BMP280;58630;43.022;25.100;2023-04-24T13:01:30;;;;24.20
70969;BMP280;58630;43.022;25.100;2023-04-24T13:03:56;;;;24.30
70969;BMP280;58630;43.022;25.100;2023-04-24T13:06:21;;;;24.40
70969;BMP280;58630;43.022;25.100;2023-04-24T13:08:47;;;;24.40
70969;BMP280;58630;43.022;25.100;2023-04-24T13:11:13;;;;24.40
70969;BMP280;58630;43.022;25.100;2023-04-24T13:13:39;;;;24.50
70969;BMP280;58630;43.022;25.100;2023-04-24T13:16:05;;;;24.50
70969;BMP280;58630;43.022;25.100;2023-04-24T13:18:30;;;;24.50
70969;BMP280;58630;43.022;25.100;2023-04-24T13:20:56;;;;24.50
70969;BMP280;58630;43.022;25.100;2023-04-24T13:23:23;;;;24.40
70969;BMP280;58630;43.022;25.100;2023-04-24T13:25:48;;;;24.30
70969;BMP280;58630;43.022;25.100;2023-04-24T13:28:14;;;;24.30
70969;BMP280;58630;43.022;25.100;2023-04-24T13:30:40;;;;24.40
70969;BMP280;58630;43.022;25.100;2023-04-24T13:33:05;;;;24.40
70969;BMP280;58630;43.022;25.100;2023-04-24T13:35:31;;;;24.40
70969;BMP280;58630;43.022;25.100;2023-04-24T13:37:57;;;;24.40
70969;BMP280;58630;43.022;25.100;2023-04-24T13:40:23;;;;24.30
70969;BMP280;58630;43.022;25.100;2023-04-24T13:42:48;;;;24.40
70969;BMP280;58630;43.022;25.100;2023-04-24T13:45:14;;;;24.40
